sensor_id;sensor_type;location;lat;lon;timestamp;temperature;humidity
38784;DHT22;24531;45.502;12.238;2023-02-28T00:03:07;7.90;79.00
38784;DHT22;24531;45.502;12.238;2023-02-28T00:08:43;5.60;77.80
38784;DHT22;24531;45.502;12.238;2023-02-28T00:17:59;6.10;78.30
38784;DHT22;24531;45.502;12.238;2023-02-28T00:26:57;6.10;78.30
38784;DHT22;24531;45.502;12.238;2023-02-28T00:29:23;7.30;80.10
38784;DHT22;24531;45.502;12.238;2023-02-28T00:31:55;7.30;79.60
38784;DHT22;24531;45.502;12.238;2023-02-28T00:34:20;7.30;79.70
38784;DHT22;24531;45.502;12.238;2023-02-28T00:36:46;8.40;79.80
38784;DHT22;24531;45.502;12.238;2023-02-28T00:39:14;7.50;79.40
38784;DHT22;24531;45.502;12.238;2023-02-28T00:41:40;7.50;79.30
38784;DHT22;24531;45.502;12.238;2023-02-28T01:16:00;7.60;79.10
38784;DHT22;24531;45.502;12.238;2023-02-28T02:03:54;7.90;79.30
38784;DHT22;24531;45.502;12.238;2023-02-28T02:06:26;8.00;79.30
38784;DHT22;24531;45.502;12.238;2023-02-28T02:08:52;8.00;79.40
38784;DHT22;24531;45.502;12.238;2023-02-28T02:11:21;8.00;79.30
38784;DHT22;24531;45.502;12.238;2023-02-28T02:42:36;8.10;79.00
38784;DHT22;24531;45.502;12.238;2023-02-28T02:45:19;8.10;80.00
38784;DHT22;24531;45.502;12.238;2023-02-28T02:47:48;8.10;79.00
38784;DHT22;24531;45.502;12.238;2023-02-28T02:50:23;8.00;79.20
38784;DHT22;24531;45.502;12.238;2023-02-28T02:52:56;8.00;79.00
38784;DHT22;24531;45.502;12.238;2023-02-28T02:55:23;8.00;78.90
38784;DHT22;24531;45.502;12.238;2023-02-28T02:57:53;7.90;79.10
38784;DHT22;24531;45.502;12.238;2023-02-28T03:00:25;7.90;79.10
38784;DHT22;24531;45.502;12.238;2023-02-28T03:02:52;7.80;80.00
38784;DHT22;24531;45.502;12.238;2023-02-28T03:05:32;7.80;79.40
38784;DHT22;24531;45.502;12.238;2023-02-28T03:07:59;7.90;79.40
38784;DHT22;24531;45.502;12.238;2023-02-28T03:10:28;8.00;79.40
38784;DHT22;24531;45.502;12.238;2023-02-28T03:15:50;8.00;79.30
38784;DHT22;24531;45.502;12.238;2023-02-28T03:21:26;8.00;79.30
38784;DHT22;24531;45.502;12.238;2023-02-28T03:26:55;8.10;79.40
38784;DHT22;24531;45.502;12.238;2023-02-28T03:29:37;8.10;79.50
38784;DHT22;24531;45.502;12.238;2023-02-28T03:32:28;8.10;79.40
38784;DHT22;24531;45.502;12.238;2023-02-28T03:35:25;8.10;79.40
38784;DHT22;24531;45.502;12.238;2023-02-28T03:37:58;8.20;79.40
38784;DHT22;24531;45.502;12.238;2023-02-28T03:40:30;8.20;79.30
38784;DHT22;24531;45.502;12.238;2023-02-28T03:43:02;8.10;79.30
38784;DHT22;24531;45.502;12.238;2023-02-28T03:45:30;8.10;79.30
38784;DHT22;24531;45.502;12.238;2023-02-28T03:48:11;8.20;80.20
38784;DHT22;24531;45.502;12.238;2023-02-28T03:50:44;8.10;79.40
38784;DHT22;24531;45.502;12.238;2023-02-28T03:53:21;8.10;79.40
38784;DHT22;24531;45.502;12.238;2023-02-28T04:01:28;7.90;79.50
38784;DHT22;24531;45.502;12.238;2023-02-28T04:03:55;8.00;79.50
38784;DHT22;24531;45.502;12.238;2023-02-28T04:22:30;7.10;78.80
38784;DHT22;24531;45.502;12.238;2023-02-28T04:24:56;7.90;80.80
38784;DHT22;24531;45.502;12.238;2023-02-28T04:27:22;7.90;80.20
38784;DHT22;24531;45.502;12.238;2023-02-28T04:29:47;7.90;79.40
38784;DHT22;24531;45.502;12.238;2023-02-28T04:32:13;7.80;79.50
38784;DHT22;24531;45.502;12.238;2023-02-28T04:42:30;7.70;79.80
38784;DHT22;24531;45.502;12.238;2023-02-28T04:55:12;7.90;79.90
38784;DHT22;24531;45.502;12.238;2023-02-28T05:14:46;6.90;79.30
38784;DHT22;24531;45.502;12.238;2023-02-28T05:17:11;6.90;79.50
38784;DHT22;24531;45.502;12.238;2023-02-28T05:27:32;7.40;79.80
38784;DHT22;24531;45.502;12.238;2023-02-28T05:29:58;7.30;80.30
38784;DHT22;24531;45.502;12.238;2023-02-28T05:32:24;8.70;80.80
38784;DHT22;24531;45.502;12.238;2023-02-28T05:34:50;8.90;81.10
38784;DHT22;24531;45.502;12.238;2023-02-28T05:37:16;8.20;80.80
38784;DHT22;24531;45.502;12.238;2023-02-28T05:39:43;8.10;80.70
38784;DHT22;24531;45.502;12.238;2023-02-28T05:42:09;7.40;80.30
38784;DHT22;24531;45.502;12.238;2023-02-28T05:44:35;8.30;80.80
38784;DHT22;24531;45.502;12.238;2023-02-28T05:47:00;7.50;80.20
38784;DHT22;24531;45.502;12.238;2023-02-28T05:49:26;8.30;80.70
38784;DHT22;24531;45.502;12.238;2023-02-28T06:04:49;7.50;80.00
38784;DHT22;24531;45.502;12.238;2023-02-28T06:07:14;7.40;80.20
38784;DHT22;24531;45.502;12.238;2023-02-28T06:09:40;7.40;80.30
38784;DHT22;24531;45.502;12.238;2023-02-28T06:12:06;7.40;80.30
38784;DHT22;24531;45.502;12.238;2023-02-28T06:14:33;7.60;80.60
38784;DHT22;24531;45.502;12.238;2023-02-28T06:17:00;8.90;81.30
38784;DHT22;24531;45.502;12.238;2023-02-28T06:19:26;8.80;81.20
38784;DHT22;24531;45.502;12.238;2023-02-28T06:21:53;7.60;81.20
38784;DHT22;24531;45.502;12.238;2023-02-28T06:24:20;8.00;80.50
38784;DHT22;24531;45.502;12.238;2023-02-28T06:26:45;8.30;80.70
38784;DHT22;24531;45.502;12.238;2023-02-28T06:29:13;8.50;80.90
38784;DHT22;24531;45.502;12.238;2023-02-28T06:31:42;7.60;81.20
38784;DHT22;24531;45.502;12.238;2023-02-28T06:34:09;7.60;80.50
38784;DHT22;24531;45.502;12.238;2023-02-28T06:36:37;8.50;81.10
38784;DHT22;24531;45.502;12.238;2023-02-28T06:39:03;7.70;80.50
38784;DHT22;24531;45.502;12.238;2023-02-28T06:41:29;7.70;80.60
38784;DHT22;24531;45.502;12.238;2023-02-28T06:43:54;7.80;80.50
38784;DHT22;24531;45.502;12.238;2023-02-28T06:46:21;7.80;80.50
38784;DHT22;24531;45.502;12.238;2023-02-28T06:48:46;7.90;80.60
38784;DHT22;24531;45.502;12.238;2023-02-28T06:51:27;8.00;80.60
38784;DHT22;24531;45.502;12.238;2023-02-28T06:57:21;7.60;80.20
38784;DHT22;24531;45.502;12.238;2023-02-28T08:01:11;13.70;74.10
38784;DHT22;24531;45.502;12.238;2023-02-28T08:06:21;14.40;73.20
38784;DHT22;24531;45.502;12.238;2023-02-28T08:08:47;14.70;73.80
38784;DHT22;24531;45.502;12.238;2023-02-28T08:11:13;15.20;73.30
38784;DHT22;24531;45.502;12.238;2023-02-28T08:13:39;15.70;72.60
38784;DHT22;24531;45.502;12.238;2023-02-28T08:16:05;15.90;71.40
38784;DHT22;24531;45.502;12.238;2023-02-28T08:18:32;16.00;71.10
38784;DHT22;24531;45.502;12.238;2023-02-28T08:20:57;16.30;71.20
38784;DHT22;24531;45.502;12.238;2023-02-28T08:23:24;16.60;70.20
38784;DHT22;24531;45.502;12.238;2023-02-28T08:25:56;16.80;69.60
38784;DHT22;24531;45.502;12.238;2023-02-28T08:28:22;16.90;67.90
38784;DHT22;24531;45.502;12.238;2023-02-28T08:30:47;16.90;68.80
38784;DHT22;24531;45.502;12.238;2023-02-28T08:35:45;16.90;68.20
38784;DHT22;24531;45.502;12.238;2023-02-28T08:38:10;17.10;67.60
38784;DHT22;24531;45.502;12.238;2023-02-28T08:40:36;17.60;67.80
38784;DHT22;24531;45.502;12.238;2023-02-28T08:43:01;18.00;67.40
38784;DHT22;24531;45.502;12.238;2023-02-28T08:45:27;18.20;66.30
38784;DHT22;24531;45.502;12.238;2023-02-28T08:47:54;18.20;64.30
38784;DHT22;24531;45.502;12.238;2023-02-28T08:50:21;18.10;63.60
38784;DHT22;24531;45.502;12.238;2023-02-28T08:52:46;18.20;64.40
38784;DHT22;24531;45.502;12.238;2023-02-28T08:55:12;18.40;63.40
38784;DHT22;24531;45.502;12.238;2023-02-28T08:57:38;18.50;62.70
38784;DHT22;24531;45.502;12.238;2023-02-28T09:00:04;18.50;62.50
38784;DHT22;24531;45.502;12.238;2023-02-28T09:02:31;18.70;62.50
38784;DHT22;24531;45.502;12.238;2023-02-28T09:04:57;18.80;61.70
38784;DHT22;24531;45.502;12.238;2023-02-28T09:07:24;18.90;60.80
38784;DHT22;24531;45.502;12.238;2023-02-28T09:09:50;18.90;60.40
38784;DHT22;24531;45.502;12.238;2023-02-28T09:12:24;19.00;60.00
38784;DHT22;24531;45.502;12.238;2023-02-28T09:14:51;19.20;60.40
38784;DHT22;24531;45.502;12.238;2023-02-28T09:17:16;19.50;60.40
38784;DHT22;24531;45.502;12.238;2023-02-28T09:19:42;19.90;59.90
38784;DHT22;24531;45.502;12.238;2023-02-28T09:22:09;20.00;59.20
38784;DHT22;24531;45.502;12.238;2023-02-28T09:24:36;19.50;58.60
38784;DHT22;24531;45.502;12.238;2023-02-28T09:44:45;16.50;61.90
38784;DHT22;24531;45.502;12.238;2023-02-28T10:47:33;14.90;62.90
38784;DHT22;24531;45.502;12.238;2023-02-28T10:57:39;14.70;63.60
38784;DHT22;24531;45.502;12.238;2023-02-28T11:00:20;14.60;63.60
38784;DHT22;24531;45.502;12.238;2023-02-28T11:02:47;14.40;63.80
38784;DHT22;24531;45.502;12.238;2023-02-28T11:08:16;14.30;64.50
38784;DHT22;24531;45.502;12.238;2023-02-28T11:10:48;14.20;64.60
38784;DHT22;24531;45.502;12.238;2023-02-28T11:13:19;14.20;64.60
38784;DHT22;24531;45.502;12.238;2023-02-28T11:15:52;14.00;64.70
38784;DHT22;24531;45.502;12.238;2023-02-28T11:18:38;14.00;65.20
38784;DHT22;24531;45.502;12.238;2023-02-28T11:27:54;14.10;65.50
38784;DHT22;24531;45.502;12.238;2023-02-28T11:30:40;14.00;65.60
38784;DHT22;24531;45.502;12.238;2023-02-28T11:33:22;14.10;65.80
38784;DHT22;24531;45.502;12.238;2023-02-28T11:35:49;14.10;66.00
38784;DHT22;24531;45.502;12.238;2023-02-28T11:38:15;14.10;66.10
38784;DHT22;24531;45.502;12.238;2023-02-28T11:41:02;14.10;65.90
38784;DHT22;24531;45.502;12.238;2023-02-28T11:43:51;14.10;65.80
38784;DHT22;24531;45.502;12.238;2023-02-28T11:46:35;14.10;65.80
38784;DHT22;24531;45.502;12.238;2023-02-28T12:17:55;14.30;67.00
38784;DHT22;24531;45.502;12.238;2023-02-28T12:20:35;14.20;66.80
38784;DHT22;24531;45.502;12.238;2023-02-28T12:26:02;14.10;66.90
38784;DHT22;24531;45.502;12.238;2023-02-28T12:28:35;14.00;66.80
38784;DHT22;24531;45.502;12.238;2023-02-28T12:31:17;14.00;67.10
38784;DHT22;24531;45.502;12.238;2023-02-28T12:33:50;13.90;67.10
38784;DHT22;24531;45.502;12.238;2023-02-28T12:36:19;13.90;67.20
38784;DHT22;24531;45.502;12.238;2023-02-28T12:39:00;13.90;67.30
38784;DHT22;24531;45.502;12.238;2023-02-28T12:41:41;13.90;67.30
38784;DHT22;24531;45.502;12.238;2023-02-28T12:47:04;13.80;67.30
38784;DHT22;24531;45.502;12.238;2023-02-28T12:49:38;13.70;67.30
38784;DHT22;24531;45.502;12.238;2023-02-28T12:52:05;13.70;67.10
38784;DHT22;24531;45.502;12.238;2023-02-28T13:00:08;13.70;67.80
38784;DHT22;24531;45.502;12.238;2023-02-28T13:02:48;13.70;67.70
38784;DHT22;24531;45.502;12.238;2023-02-28T13:05:46;13.70;67.80
38784;DHT22;24531;45.502;12.238;2023-02-28T13:11:02;13.80;68.30
38784;DHT22;24531;45.502;12.238;2023-02-28T13:13:30;13.80;68.10
38784;DHT22;24531;45.502;12.238;2023-02-28T13:16:09;13.70;67.80
38784;DHT22;24531;45.502;12.238;2023-02-28T13:18:38;13.60;67.90
38784;DHT22;24531;45.502;12.238;2023-02-28T13:21:09;13.60;68.20
38784;DHT22;24531;45.502;12.238;2023-02-28T13:26:16;13.60;67.80
38784;DHT22;24531;45.502;12.238;2023-02-28T13:31:19;13.60;68.20
38784;DHT22;24531;45.502;12.238;2023-02-28T13:39:44;13.60;68.40
38784;DHT22;24531;45.502;12.238;2023-02-28T13:41:46;13.60;68.40
38784;DHT22;24531;45.502;12.238;2023-02-28T13:44:20;13.70;68.50
38784;DHT22;24531;45.502;12.238;2023-02-28T13:52:02;13.80;69.00
38784;DHT22;24531;45.502;12.238;2023-02-28T14:19:37;13.50;69.70
38784;DHT22;24531;45.502;12.238;2023-02-28T14:30:13;13.20;69.60
38784;DHT22;24531;45.502;12.238;2023-02-28T14:32:53;13.20;69.80
38784;DHT22;24531;45.502;12.238;2023-02-28T14:37:51;13.20;70.10
38784;DHT22;24531;45.502;12.238;2023-02-28T14:40:29;13.20;69.90
38784;DHT22;24531;45.502;12.238;2023-02-28T14:42:58;13.20;70.10
38784;DHT22;24531;45.502;12.238;2023-02-28T14:50:37;13.10;70.80
38784;DHT22;24531;45.502;12.238;2023-02-28T14:53:03;13.00;70.90
38784;DHT22;24531;45.502;12.238;2023-02-28T14:55:34;13.00;71.00
38784;DHT22;24531;45.502;12.238;2023-02-28T14:58:05;12.90;71.00
38784;DHT22;24531;45.502;12.238;2023-02-28T15:00:48;12.90;71.20
38784;DHT22;24531;45.502;12.238;2023-02-28T15:03:23;12.80;71.50
38784;DHT22;24531;45.502;12.238;2023-02-28T15:05:55;12.80;71.70
38784;DHT22;24531;45.502;12.238;2023-02-28T15:08:21;12.70;71.80
38784;DHT22;24531;45.502;12.238;2023-02-28T15:10:54;12.70;71.90
38784;DHT22;24531;45.502;12.238;2023-02-28T15:13:20;12.60;72.10
38784;DHT22;24531;45.502;12.238;2023-02-28T15:15:59;12.70;72.20
38784;DHT22;24531;45.502;12.238;2023-02-28T15:21:19;12.60;72.10
38784;DHT22;24531;45.502;12.238;2023-02-28T15:23:53;12.60;72.50
38784;DHT22;24531;45.502;12.238;2023-02-28T15:26:22;12.60;72.60
38784;DHT22;24531;45.502;12.238;2023-02-28T15:28:52;12.70;72.60
38784;DHT22;24531;45.502;12.238;2023-02-28T15:31:26;12.60;72.50
38784;DHT22;24531;45.502;12.238;2023-02-28T15:33:56;12.70;72.70
38784;DHT22;24531;45.502;12.238;2023-02-28T16:34:13;11.60;74.90
38784;DHT22;24531;45.502;12.238;2023-02-28T18:11:54;9.80;76.10
38784;DHT22;24531;45.502;12.238;2023-02-28T18:18:11;9.70;76.40
38784;DHT22;24531;45.502;12.238;2023-02-28T18:32:23;9.50;76.70
38784;DHT22;24531;45.502;12.238;2023-02-28T18:34:48;9.50;76.80
38784;DHT22;24531;45.502;12.238;2023-02-28T18:37:15;9.50;76.80
38784;DHT22;24531;45.502;12.238;2023-02-28T18:39:45;9.40;76.70
38784;DHT22;24531;45.502;12.238;2023-02-28T18:42:10;9.40;76.80
38784;DHT22;24531;45.502;12.238;2023-02-28T18:44:36;9.40;76.80
38784;DHT22;24531;45.502;12.238;2023-02-28T18:47:02;9.30;77.60
38784;DHT22;24531;45.502;12.238;2023-02-28T18:49:30;9.30;77.00
38784;DHT22;24531;45.502;12.238;2023-02-28T18:51:57;9.30;76.90
38784;DHT22;24531;45.502;12.238;2023-02-28T18:54:23;9.30;77.10
38784;DHT22;24531;45.502;12.238;2023-02-28T18:56:48;9.30;76.90
38784;DHT22;24531;45.502;12.238;2023-02-28T18:59:15;9.30;77.00
38784;DHT22;24531;45.502;12.238;2023-02-28T19:01:40;9.30;77.10
38784;DHT22;24531;45.502;12.238;2023-02-28T19:04:06;9.30;77.10
38784;DHT22;24531;45.502;12.238;2023-02-28T19:06:32;9.20;77.00
38784;DHT22;24531;45.502;12.238;2023-02-28T19:09:00;9.20;77.10
38784;DHT22;24531;45.502;12.238;2023-02-28T19:11:26;9.20;77.10
38784;DHT22;24531;45.502;12.238;2023-02-28T19:13:52;9.10;77.80
38784;DHT22;24531;45.502;12.238;2023-02-28T19:16:19;9.10;77.00
38784;DHT22;24531;45.502;12.238;2023-02-28T19:18:45;9.10;77.00
38784;DHT22;24531;45.502;12.238;2023-02-28T19:21:13;9.20;77.90
38784;DHT22;24531;45.502;12.238;2023-02-28T19:23:40;9.10;77.10
38784;DHT22;24531;45.502;12.238;2023-02-28T19:28:34;9.10;77.10
38784;DHT22;24531;45.502;12.238;2023-02-28T19:31:00;9.10;77.10
38784;DHT22;24531;45.502;12.238;2023-02-28T19:33:26;9.10;77.10
38784;DHT22;24531;45.502;12.238;2023-02-28T19:35:52;9.10;77.20
38784;DHT22;24531;45.502;12.238;2023-02-28T19:38:17;9.20;77.30
38784;DHT22;24531;45.502;12.238;2023-02-28T19:40:43;9.00;77.10
38784;DHT22;24531;45.502;12.238;2023-02-28T19:43:09;9.10;77.30
38784;DHT22;24531;45.502;12.238;2023-02-28T19:45:36;9.00;77.30
38784;DHT22;24531;45.502;12.238;2023-02-28T19:48:02;9.10;77.30
38784;DHT22;24531;45.502;12.238;2023-02-28T19:50:28;9.00;77.30
38784;DHT22;24531;45.502;12.238;2023-02-28T19:52:54;9.00;77.30
38784;DHT22;24531;45.502;12.238;2023-02-28T19:55:20;9.10;77.40
38784;DHT22;24531;45.502;12.238;2023-02-28T19:57:46;9.10;77.40
38784;DHT22;24531;45.502;12.238;2023-02-28T20:00:19;9.10;77.40
38784;DHT22;24531;45.502;12.238;2023-02-28T20:02:44;9.10;77.30
38784;DHT22;24531;45.502;12.238;2023-02-28T20:05:10;9.00;77.40
38784;DHT22;24531;45.502;12.238;2023-02-28T20:07:36;9.00;77.30
38784;DHT22;24531;45.502;12.238;2023-02-28T20:10:01;9.00;77.40
38784;DHT22;24531;45.502;12.238;2023-02-28T20:12:27;9.00;77.40
38784;DHT22;24531;45.502;12.238;2023-02-28T20:14:53;8.90;77.40
38784;DHT22;24531;45.502;12.238;2023-02-28T20:17:22;9.00;77.60
38784;DHT22;24531;45.502;12.238;2023-02-28T20:19:48;8.90;77.50
38784;DHT22;24531;45.502;12.238;2023-02-28T20:22:14;8.90;77.50
38784;DHT22;24531;45.502;12.238;2023-02-28T20:24:40;8.90;77.60
38784;DHT22;24531;45.502;12.238;2023-02-28T20:27:05;9.00;77.70
38784;DHT22;24531;45.502;12.238;2023-02-28T20:29:32;8.90;77.60
38784;DHT22;24531;45.502;12.238;2023-02-28T20:31:58;8.90;77.70
38784;DHT22;24531;45.502;12.238;2023-02-28T20:34:23;8.80;77.70
38784;DHT22;24531;45.502;12.238;2023-02-28T20:36:49;8.80;77.80
38784;DHT22;24531;45.502;12.238;2023-02-28T20:39:16;8.90;78.00
38784;DHT22;24531;45.502;12.238;2023-02-28T20:41:41;8.80;77.90
38784;DHT22;24531;45.502;12.238;2023-02-28T20:44:11;8.80;77.80
38784;DHT22;24531;45.502;12.238;2023-02-28T20:46:37;8.80;78.10
38784;DHT22;24531;45.502;12.238;2023-02-28T20:49:03;8.80;78.00
38784;DHT22;24531;45.502;12.238;2023-02-28T20:51:28;8.80;78.00
38784;DHT22;24531;45.502;12.238;2023-02-28T20:53:54;8.70;77.90
38784;DHT22;24531;45.502;12.238;2023-02-28T20:56:21;8.60;78.00
38784;DHT22;24531;45.502;12.238;2023-02-28T20:58:51;8.60;78.20
38784;DHT22;24531;45.502;12.238;2023-02-28T21:01:19;8.60;78.20
38784;DHT22;24531;45.502;12.238;2023-02-28T21:03:55;8.50;78.20
38784;DHT22;24531;45.502;12.238;2023-02-28T21:06:27;8.50;78.20
38784;DHT22;24531;45.502;12.238;2023-02-28T21:08:54;8.60;78.30
38784;DHT22;24531;45.502;12.238;2023-02-28T21:11:23;8.50;78.30
38784;DHT22;24531;45.502;12.238;2023-02-28T21:13:49;8.50;78.20
38784;DHT22;24531;45.502;12.238;2023-02-28T21:16:23;8.60;78.40
38784;DHT22;24531;45.502;12.238;2023-02-28T21:18:49;8.50;78.40
38784;DHT22;24531;45.502;12.238;2023-02-28T21:21:19;8.50;78.40
38784;DHT22;24531;45.502;12.238;2023-02-28T21:23:45;8.50;78.40
38784;DHT22;24531;45.502;12.238;2023-02-28T21:26:16;8.40;78.40
38784;DHT22;24531;45.502;12.238;2023-02-28T21:28:51;8.40;78.60
38784;DHT22;24531;45.502;12.238;2023-02-28T21:31:19;8.50;78.70
38784;DHT22;24531;45.502;12.238;2023-02-28T21:33:45;8.40;78.40
38784;DHT22;24531;45.502;12.238;2023-02-28T21:36:16;8.50;78.40
38784;DHT22;24531;45.502;12.238;2023-02-28T21:38:43;8.50;78.50
38784;DHT22;24531;45.502;12.238;2023-02-28T21:41:11;8.50;78.50
38784;DHT22;24531;45.502;12.238;2023-02-28T21:43:38;8.50;78.40
38784;DHT22;24531;45.502;12.238;2023-02-28T21:46:07;8.50;78.50
38784;DHT22;24531;45.502;12.238;2023-02-28T21:48:33;8.50;78.50
38784;DHT22;24531;45.502;12.238;2023-02-28T21:51:00;8.50;78.40
38784;DHT22;24531;45.502;12.238;2023-02-28T21:53:27;8.60;78.40
38784;DHT22;24531;45.502;12.238;2023-02-28T21:55:53;8.60;78.40
38784;DHT22;24531;45.502;12.238;2023-02-28T21:58:19;8.60;78.40
38784;DHT22;24531;45.502;12.238;2023-02-28T22:00:45;8.60;78.40
38784;DHT22;24531;45.502;12.238;2023-02-28T22:03:12;8.60;78.40
38784;DHT22;24531;45.502;12.238;2023-02-28T22:05:38;8.60;78.40
38784;DHT22;24531;45.502;12.238;2023-02-28T22:08:03;8.60;78.20
38784;DHT22;24531;45.502;12.238;2023-02-28T22:10:29;8.60;78.20
38784;DHT22;24531;45.502;12.238;2023-02-28T22:12:54;8.60;78.20
38784;DHT22;24531;45.502;12.238;2023-02-28T22:15:20;8.50;78.30
38784;DHT22;24531;45.502;12.238;2023-02-28T22:17:46;8.40;78.20
38784;DHT22;24531;45.502;12.238;2023-02-28T22:20:12;8.50;79.10
38784;DHT22;24531;45.502;12.238;2023-02-28T22:22:38;8.50;78.40
38784;DHT22;24531;45.502;12.238;2023-02-28T22:25:04;8.50;78.50
38784;DHT22;24531;45.502;12.238;2023-02-28T22:27:30;8.40;78.50
38784;DHT22;24531;45.502;12.238;2023-02-28T22:29:56;8.90;78.80
38784;DHT22;24531;45.502;12.238;2023-02-28T22:32:22;8.70;78.60
38784;DHT22;24531;45.502;12.238;2023-02-28T22:34:51;8.30;78.40
38784;DHT22;24531;45.502;12.238;2023-02-28T22:37:17;8.30;78.60
38784;DHT22;24531;45.502;12.238;2023-02-28T22:39:42;8.20;78.60
38784;DHT22;24531;45.502;12.238;2023-02-28T22:42:08;8.10;78.60
38784;DHT22;24531;45.502;12.238;2023-02-28T22:44:34;8.10;78.80
38784;DHT22;24531;45.502;12.238;2023-02-28T22:47:00;8.00;78.80
38784;DHT22;24531;45.502;12.238;2023-02-28T22:49:26;8.00;79.00
38784;DHT22;24531;45.502;12.238;2023-02-28T22:51:51;9.20;79.80
38784;DHT22;24531;45.502;12.238;2023-02-28T22:54:17;7.90;79.00
38784;DHT22;24531;45.502;12.238;2023-02-28T22:56:43;9.20;80.10
38784;DHT22;24531;45.502;12.238;2023-02-28T22:59:12;8.00;79.40
38784;DHT22;24531;45.502;12.238;2023-02-28T23:01:39;7.90;79.30
38784;DHT22;24531;45.502;12.238;2023-02-28T23:04:05;8.10;79.40
38784;DHT22;24531;45.502;12.238;2023-02-28T23:06:36;7.90;79.40
38784;DHT22;24531;45.502;12.238;2023-02-28T23:09:08;7.90;79.50
38784;DHT22;24531;45.502;12.238;2023-02-28T23:11:42;8.40;79.90
38784;DHT22;24531;45.502;12.238;2023-02-28T23:14:09;7.90;79.70
38784;DHT22;24531;45.502;12.238;2023-02-28T23:19:14;7.90;79.70
38784;DHT22;24531;45.502;12.238;2023-02-28T23:21:40;7.90;79.70
38784;DHT22;24531;45.502;12.238;2023-02-28T23:24:08;7.90;79.70
38784;DHT22;24531;45.502;12.238;2023-02-28T23:26:38;7.90;79.60
38784;DHT22;24531;45.502;12.238;2023-02-28T23:29:04;8.30;80.00
38784;DHT22;24531;45.502;12.238;2023-02-28T23:31:30;8.00;79.80
38784;DHT22;24531;45.502;12.238;2023-02-28T23:33:57;8.00;79.70
38784;DHT22;24531;45.502;12.238;2023-02-28T23:36:22;8.00;79.70
38784;DHT22;24531;45.502;12.238;2023-02-28T23:38:49;8.00;79.70
38784;DHT22;24531;45.502;12.238;2023-02-28T23:41:17;8.00;79.70
38784;DHT22;24531;45.502;12.238;2023-02-28T23:43:45;8.00;80.50
38784;DHT22;24531;45.502;12.238;2023-02-28T23:46:12;8.10;80.50
38784;DHT22;24531;45.502;12.238;2023-02-28T23:48:39;8.10;79.60
38784;DHT22;24531;45.502;12.238;2023-02-28T23:51:07;8.10;79.70
38784;DHT22;24531;45.502;12.238;2023-02-28T23:53:38;8.00;80.40
38784;DHT22;24531;45.502;12.238;2023-02-28T23:56:05;8.10;79.70
38784;DHT22;24531;45.502;12.238;2023-02-28T23:58:32;8.00;79.60
